Time;durP1;ratioP1;P1;durP2;ratioP2;P2;SDS_P1;SDS_P2;PMS_P1;PMS_P2;Temp;Humidity;BMP_temperature;BMP_pressure;BME280_temperature;BME280_humidity;BME280_pressure;Samples;Min_cycle;Max_cycle;Signal;HPM_P1;HPM_P2
2022/06/02 00:00:18;;;;;;;12.00;9.63;;;10.30;1.00;;;;;;5015686;28;20237;-86
2022/06/02 00:03:14;;;;;;;11.90;9.73;;;10.30;1.00;;;;;;5015654;28;20258;-84
2022/06/02 00:05:58;;;;;;;15.00;10.17;;;10.40;1.00;;;;;;5015113;28;20621;-87
2022/06/02 00:08:48;;;;;;;10.30;8.70;;;10.40;1.00;;;;;;5015589;28;20194;-84
2022/06/02 00:11:30;;;;;;;9.90;8.43;;;10.40;1.00;;;;;;5016076;28;20201;-85
2022/06/02 00:14:04;;;;;;;9.33;8.33;;;10.40;1.00;;;;;;5015583;28;20585;-85
2022/06/02 00:16:49;;;;;;;10.10;8.47;;;10.30;1.00;;;;;;5015500;28;20199;-84
2022/06/02 00:19:25;;;;;;;9.57;8.23;;;10.30;1.00;;;;;;5015264;28;20219;-85
2022/06/02 00:21:58;;;;;;;11.07;8.80;;;10.30;1.00;;;;;;5015463;28;20189;-87
2022/06/02 00:24:39;;;;;;;9.23;7.93;;;10.30;1.00;;;;;;5002509;28;20242;-84
2022/06/02 00:27:15;;;;;;;10.93;9.17;;;10.30;99.90;;;;;;5015338;28;20213;-86
2022/06/02 00:29:48;;;;;;;14.33;9.90;;;10.30;99.90;;;;;;5015339;28;20189;-84
2022/06/02 00:32:20;;;;;;;16.47;10.80;;;10.20;99.90;;;;;;5015530;28;20247;-85
2022/06/02 00:34:52;;;;;;;12.80;10.23;;;10.20;99.90;;;;;;5014902;28;20194;-85
2022/06/02 00:37:31;;;;;;;12.80;10.53;;;10.20;1.00;;;;;;5015039;28;20258;-84
2022/06/02 00:40:01;;;;;;;11.30;10.10;;;10.20;1.00;;;;;;5015282;28;20188;-88
2022/06/02 00:42:36;;;;;;;11.53;10.33;;;10.20;1.00;;;;;;5014982;28;20195;-85
2022/06/02 00:45:07;;;;;;;12.60;10.23;;;10.20;1.00;;;;;;5014848;28;20192;-83
2022/06/02 00:47:49;;;;;;;17.00;11.00;;;10.20;1.00;;;;;;5014771;28;20208;-85
2022/06/02 00:50:33;;;;;;;11.83;10.53;;;10.20;1.00;;;;;;5013843;28;20228;-85
2022/06/02 00:53:08;;;;;;;11.83;10.30;;;10.30;1.00;;;;;;5013185;28;20227;-84
2022/06/02 00:58:35;;;;;;;12.57;10.73;;;10.30;1.00;;;;;;5004159;28;20203;-85
2022/06/02 01:01:09;;;;;;;13.43;10.50;;;10.30;1.00;;;;;;5014720;28;20594;-85
2022/06/02 01:03:43;;;;;;;13.10;10.70;;;10.30;1.00;;;;;;5014624;28;20199;-85
2022/06/02 01:06:49;;;;;;;13.47;10.70;;;10.30;1.00;;;;;;5014231;28;20621;-85
2022/06/02 01:09:46;;;;;;;15.53;11.47;;;10.30;1.00;;;;;;4996298;28;20203;-85
2022/06/02 01:12:28;;;;;;;14.33;11.73;;;10.30;1.00;;;;;;5014294;28;20213;-85
2022/06/02 01:15:05;;;;;;;13.27;11.10;;;10.30;1.00;;;;;;5014560;28;20261;-85
2022/06/02 01:17:44;;;;;;;13.67;12.13;;;10.30;1.00;;;;;;5014294;28;20198;-85
2022/06/02 01:20:25;;;;;;;15.67;11.63;;;10.30;1.00;;;;;;5014713;28;20200;-86
2022/06/02 01:23:26;;;;;;;13.97;11.30;;;10.30;1.00;;;;;;5001578;28;20191;-85
2022/06/02 01:26:18;;;;;;;13.27;11.53;;;10.40;54.10;;;;;;5013677;28;20610;-85
2022/06/02 01:28:56;;;;;;;15.50;11.87;;;10.40;99.90;;;;;;5014498;28;20242;-88
2022/06/02 01:31:35;;;;;;;13.90;11.67;;;10.50;99.90;;;;;;5014160;28;20196;-87
2022/06/02 01:34:12;;;;;;;13.97;12.00;;;10.50;64.80;;;;;;5013743;28;20196;-87
2022/06/02 01:36:48;;;;;;;12.40;11.07;;;10.50;9.90;;;;;;5014113;28;20251;-86
2022/06/02 01:39:30;;;;;;;12.40;11.10;;;10.60;21.20;;;;;;5014060;28;20189;-87
2022/06/02 01:42:05;;;;;;;12.77;10.63;;;10.60;12.20;;;;;;5014184;28;20199;-86
2022/06/02 01:44:43;;;;;;;11.77;10.50;;;10.60;1.00;;;;;;5013806;28;20197;-85
2022/06/02 01:47:19;;;;;;;12.03;10.40;;;10.70;1.00;;;;;;5013916;28;20347;-85
2022/06/02 01:50:01;;;;;;;11.90;10.63;;;10.70;1.00;;;;;;5013426;28;20709;-85
2022/06/02 01:52:45;;;;;;;11.80;9.97;;;10.70;1.90;;;;;;5013843;28;20197;-84
2022/06/02 01:55:41;;;;;;;11.63;10.13;;;10.60;1.00;;;;;;5013925;28;20195;-85
2022/06/02 01:58:21;;;;;;;12.47;10.00;;;10.70;58.90;;;;;;5013547;28;20260;-85
2022/06/02 02:00:56;;;;;;;11.50;10.30;;;10.70;45.50;;;;;;5013715;28;20193;-86
2022/06/02 02:03:32;;;;;;;11.30;10.20;;;10.70;1.00;;;;;;5013548;28;20203;-85
2022/06/02 02:06:11;;;;;;;12.00;9.80;;;10.70;1.00;;;;;;5013535;28;20244;-84
2022/06/02 02:09:07;;;;;;;11.03;9.83;;;10.70;1.00;;;;;;5013121;28;20618;-85
2022/06/02 02:11:57;;;;;;;11.97;10.10;;;10.70;50.40;;;;;;5013033;28;20197;-85
2022/06/02 02:14:56;;;;;;;12.63;10.43;;;10.70;25.30;;;;;;5010527;28;20248;-85
2022/06/02 02:17:43;;;;;;;11.93;9.70;;;10.70;29.50;;;;;;4998734;28;20198;-85
2022/06/02 02:20:23;;;;;;;11.50;10.37;;;10.70;27.40;;;;;;5011542;28;20690;-85
2022/06/02 02:22:58;;;;;;;11.47;10.33;;;10.70;1.00;;;;;;5013304;28;20205;-86
2022/06/02 02:25:30;;;;;;;13.17;10.27;;;10.70;1.00;;;;;;5012726;28;20603;-86
2022/06/02 02:28:08;;;;;;;11.27;10.13;;;10.70;1.00;;;;;;5012770;28;20294;-86
2022/06/02 02:30:48;;;;;;;14.30;10.03;;;10.70;1.00;;;;;;5012671;28;20197;-85
2022/06/02 02:33:27;;;;;;;12.60;10.70;;;10.70;1.00;;;;;;5013349;28;20287;-85
2022/06/02 02:36:03;;;;;;;13.13;10.87;;;10.70;1.00;;;;;;5012907;28;20244;-85
2022/06/02 02:38:38;;;;;;;14.17;10.97;;;10.70;1.00;;;;;;5012999;28;20192;-85
2022/06/02 02:41:19;;;;;;;11.57;10.00;;;10.70;6.90;;;;;;5012781;28;20279;-87
2022/06/02 02:43:53;;;;;;;12.40;9.90;;;10.70;9.60;;;;;;5012866;28;20190;-86
2022/06/02 02:46:27;;;;;;;11.70;10.50;;;10.70;1.00;;;;;;5012853;28;20295;-85
2022/06/02 02:49:01;;;;;;;10.47;9.37;;;10.70;1.00;;;;;;5012864;28;20196;-86
2022/06/02 02:51:39;;;;;;;11.23;10.13;;;10.70;1.00;;;;;;5012537;28;20197;-86
2022/06/02 02:54:12;;;;;;;11.13;10.03;;;10.70;1.00;;;;;;5012854;28;20297;-87
2022/06/02 02:56:46;;;;;;;11.40;9.90;;;10.70;1.00;;;;;;5012875;28;20605;-87
2022/06/02 02:59:20;;;;;;;13.13;9.53;;;10.70;1.00;;;;;;5012438;28;20191;-87
2022/06/02 03:01:57;;;;;;;11.60;9.87;;;10.80;1.00;;;;;;5012305;28;20195;-86
2022/06/02 03:04:39;;;;;;;15.00;10.07;;;10.70;1.00;;;;;;5012348;28;20708;-89
2022/06/02 03:07:07;;;;;;;11.67;10.40;;;10.80;1.00;;;;;;5012032;28;20216;-85
2022/06/02 03:09:42;;;;;;;11.43;10.23;;;10.70;1.00;;;;;;5012533;28;20253;-85
2022/06/02 03:12:18;;;;;;;9.93;8.93;;;10.70;1.00;;;;;;5011985;28;20223;-85
2022/06/02 03:15:03;;;;;;;10.70;9.40;;;10.70;1.00;;;;;;5012821;28;20655;-86
2022/06/02 03:17:41;;;;;;;10.53;9.43;;;10.70;13.60;;;;;;4999539;28;20201;-89
2022/06/02 03:20:15;;;;;;;10.23;9.13;;;10.80;15.10;;;;;;5011560;28;20286;-87
2022/06/02 03:23:09;;;;;;;11.27;9.80;;;10.80;9.10;;;;;;5005695;28;20213;-85
2022/06/02 03:25:41;;;;;;;9.87;8.87;;;10.80;68.30;;;;;;5010216;28;20252;-85
2022/06/02 03:28:21;;;;;;;12.50;10.27;;;10.80;24.90;;;;;;5012211;28;20257;-85
2022/06/02 03:30:57;;;;;;;11.23;10.07;;;10.90;99.50;;;;;;5010882;28;20591;-86
2022/06/02 03:33:40;;;;;;;10.83;9.73;;;10.90;99.20;;;;;;5011589;28;20602;-87
2022/06/02 03:36:14;;;;;;;10.13;9.20;;;10.90;99.90;;;;;;5012469;28;20200;-86
2022/06/02 03:39:00;;;;;;;10.33;8.57;;;11.00;99.90;;;;;;5005824;28;20650;-86
2022/06/02 03:41:53;;;;;;;10.50;8.90;;;11.00;99.90;;;;;;5012192;28;20261;-85
2022/06/02 03:44:31;;;;;;;10.53;8.83;;;11.00;99.90;;;;;;5011952;28;20211;-87
2022/06/02 03:47:19;;;;;;;9.67;8.60;;;11.00;62.90;;;;;;5012268;28;20220;-88
2022/06/02 03:50:02;;;;;;;10.57;8.90;;;11.00;1.00;;;;;;5012133;28;20187;-86
2022/06/02 03:52:55;;;;;;;10.13;9.10;;;11.00;1.00;;;;;;5011803;28;20541;-86
2022/06/02 03:55:39;;;;;;;12.60;9.07;;;11.00;1.00;;;;;;5011970;28;20267;-85
2022/06/02 03:58:20;;;;;;;11.10;9.60;;;11.00;1.00;;;;;;5011645;28;20193;-86
2022/06/02 04:00:50;;;;;;;9.80;8.87;;;11.00;1.00;;;;;;5012043;28;20610;-86
2022/06/02 04:03:33;;;;;;;11.70;9.90;;;11.00;1.00;;;;;;5011911;28;20658;-87
2022/06/02 04:06:16;;;;;;;11.17;9.33;;;11.10;12.20;;;;;;5012293;28;20257;-85
2022/06/02 04:09:08;;;;;;;10.27;9.17;;;11.20;92.30;;;;;;5011577;28;20238;-87
2022/06/02 04:14:57;;;;;;;12.90;11.17;;;11.30;99.90;;;;;;5006059;28;20198;-84
2022/06/02 04:17:32;;;;;;;9.67;8.37;;;11.40;99.90;;;;;;4999669;28;20553;-86
2022/06/02 04:20:37;;;;;;;9.83;8.20;;;11.50;99.90;;;;;;5011857;28;20245;-86
2022/06/02 04:23:37;;;;;;;11.20;8.53;;;11.60;99.90;;;;;;5011969;28;20283;-86
2022/06/02 04:26:20;;;;;;;8.97;8.07;;;11.80;99.90;;;;;;5014843;28;20690;-85
2022/06/02 04:29:02;;;;;;;9.23;8.33;;;11.90;99.90;;;;;;5014787;28;20250;-86
2022/06/02 04:31:46;;;;;;;9.10;7.83;;;12.10;99.90;;;;;;5015543;28;20231;-86
2022/06/02 04:34:21;;;;;;;10.07;8.53;;;12.20;99.90;;;;;;5015244;28;20653;-86
2022/06/02 04:36:56;;;;;;;11.30;7.87;;;12.40;99.90;;;;;;5015292;28;20187;-87
2022/06/02 04:39:28;;;;;;;8.20;7.40;;;12.50;1.00;;;;;;5005609;28;20203;-87
2022/06/02 04:42:05;;;;;;;8.73;6.90;;;12.60;1.00;;;;;;5014757;28;20546;-86
2022/06/02 04:44:41;;;;;;;8.17;7.37;;;12.80;1.00;;;;;;5015094;28;20709;-87
2022/06/02 04:47:19;;;;;;;8.23;7.43;;;13.00;1.00;;;;;;5014928;28;20222;-88
2022/06/02 04:49:55;;;;;;;9.17;6.80;;;13.20;1.00;;;;;;5015134;28;20286;-87
2022/06/02 04:52:31;;;;;;;13.77;9.30;;;13.40;1.00;;;;;;5014820;28;20193;-88
2022/06/02 04:55:05;;;;;;;7.13;6.53;;;13.60;99.90;;;;;;5015195;28;20187;-87
2022/06/02 04:57:40;;;;;;;7.37;6.67;;;13.70;1.00;;;;;;5014138;28;20670;-88
2022/06/02 05:00:17;;;;;;;6.97;6.27;;;13.70;1.00;;;;;;5014871;28;20184;-87
2022/06/02 05:02:52;;;;;;;7.43;6.73;;;13.80;1.00;;;;;;5014958;28;20194;-87
2022/06/02 05:05:29;;;;;;;6.93;6.33;;;14.20;1.00;;;;;;5014947;28;20199;-88
2022/06/02 05:08:13;;;;;;;7.23;6.50;;;14.40;99.90;;;;;;5014455;28;20266;-87
2022/06/02 05:10:46;;;;;;;7.90;6.30;;;14.40;99.90;;;;;;5008181;28;20199;-85
2022/06/02 05:13:20;;;;;;;6.97;6.37;;;14.60;1.00;;;;;;5007795;28;20867;-86
2022/06/02 05:15:59;;;;;;;;;;;15.70;99.90;;;;;;5016198;28;20042;-87
2022/06/02 05:18:56;;;;;;;5.15;4.65;;;17.20;99.90;;;;;;5009147;28;20207;-86
2022/06/02 05:21:57;;;;;;;5.13;4.63;;;18.80;75.60;;;;;;5013871;28;20244;-87
2022/06/02 05:24:49;;;;;;;6.38;5.18;;;20.10;1.00;;;;;;5009383;28;20229;-87
2022/06/02 05:27:45;;;;;;;6.60;5.00;;;21.10;1.00;;;;;;5014053;28;20203;-89
2022/06/02 05:30:30;;;;;;;7.78;6.50;;;22.20;99.90;;;;;;5008294;28;20396;-88
2022/06/02 05:33:11;;;;;;;;;;;23.30;99.90;;;;;;5015038;28;20091;-88
2022/06/02 05:36:04;;;;;;;18.02;10.82;;;24.20;99.90;;;;;;5019093;28;20273;-88
2022/06/02 05:39:03;;;;;;;5.50;4.30;;;25.10;1.00;;;;;;5019750;28;20194;-89
2022/06/02 05:42:03;;;;;;;16.83;10.15;;;25.40;1.00;;;;;;5011588;28;20237;-88
2022/06/02 05:44:41;;;;;;;5.93;5.32;;;25.70;1.00;;;;;;5019374;28;20257;-89
2022/06/02 05:47:20;;;;;;;7.63;6.82;;;25.90;1.00;;;;;;5019509;28;20225;-89
2022/06/02 05:49:58;;;;;;;4.63;4.22;;;26.00;1.00;;;;;;5006999;28;20173;-88
2022/06/02 05:52:39;;;;;;;15.48;10.20;;;26.30;1.00;;;;;;5017821;28;20248;-88
2022/06/02 05:55:29;;;;;;;8.38;7.15;;;26.70;1.00;;;;;;5013915;28;20543;-87
2022/06/02 05:58:04;;;;;;;;;;;27.30;1.00;;;;;;5014359;28;20132;-89
2022/06/02 06:00:45;;;;;;;17.80;13.73;;;27.70;1.00;;;;;;5014145;28;20181;-90
2022/06/02 06:03:35;;;;;;;22.25;15.15;;;27.30;1.00;;;;;;5013696;28;20369;-89
2022/06/02 06:06:09;;;;;;;24.15;15.82;;;27.20;1.00;;;;;;5013893;28;20221;-89
2022/06/02 06:08:53;;;;;;;12.52;9.18;;;27.70;1.00;;;;;;5013703;28;20218;-89
2022/06/02 06:11:34;;;;;;;6.65;5.97;;;27.10;1.00;;;;;;5013774;28;20651;-87
2022/06/02 06:14:20;;;;;;;6.68;6.03;;;27.00;1.00;;;;;;5013425;28;20186;-88
2022/06/02 06:16:57;;;;;;;5.70;4.90;;;27.20;1.00;;;;;;5013007;28;20217;-88
2022/06/02 06:19:47;;;;;;;7.80;6.53;;;27.60;1.00;;;;;;5013923;28;20151;-89
2022/06/02 06:22:35;;;;;;;5.63;4.82;;;28.20;1.00;;;;;;5009202;28;20199;-90
2022/06/02 06:25:20;;;;;;;7.95;7.15;;;28.10;1.00;;;;;;5007219;28;20605;-90
2022/06/02 06:27:53;;;;;;;;;;;28.40;1.00;;;;;;5002004;28;20054;-90
2022/06/02 06:30:28;;;;;;;8.20;6.28;;;29.10;1.00;;;;;;4999809;28;20192;-89
2022/06/02 06:33:06;;;;;;;4.47;4.07;;;29.80;1.00;;;;;;5013886;28;20192;-89
2022/06/02 06:35:49;;;;;;;10.40;8.63;;;29.70;1.00;;;;;;5013778;28;20282;-91
2022/06/02 06:38:30;;;;;;;;;;;28.60;1.00;;;;;;5014014;28;20090;-89
2022/06/02 06:41:20;;;;;;;5.55;4.20;;;28.20;1.00;;;;;;5013420;28;20187;-90
2022/06/02 06:44:09;;;;;;;7.70;6.47;;;28.70;1.00;;;;;;5013528;28;20233;-88
2022/06/02 06:46:40;;;;;;;;;;;28.00;1.00;;;;;;4994037;28;20061;-89
2022/06/02 06:49:14;;;;;;;7.55;6.80;;;27.00;1.00;;;;;;5008329;28;20611;-89
2022/06/02 06:51:50;;;;;;;4.45;4.05;;;27.20;1.00;;;;;;5013578;28;20260;-89
2022/06/02 06:54:41;;;;;;;6.35;5.57;;;27.80;1.00;;;;;;5013131;28;20256;-89
2022/06/02 06:57:13;;;;;;;19.77;14.50;;;27.60;1.00;;;;;;5013496;28;20194;-88
2022/06/02 06:59:50;;;;;;;4.80;4.40;;;27.30;1.00;;;;;;5012920;28;20229;-88
2022/06/02 07:02:28;;;;;;;17.33;13.90;;;26.90;1.00;;;;;;5013036;28;20188;-89
2022/06/02 07:05:04;;;;;;;9.65;8.00;;;26.10;1.00;;;;;;5012806;28;20633;-88
2022/06/02 07:07:41;;;;;;;22.92;17.98;;;25.80;1.00;;;;;;5012792;28;20377;-89
2022/06/02 07:10:14;;;;;;;5.75;5.15;;;26.30;1.00;;;;;;5012958;28;20248;-89
2022/06/02 07:12:52;;;;;;;5.82;4.70;;;26.90;1.00;;;;;;5012625;28;20190;-90
2022/06/02 07:15:31;;;;;;;7.30;5.85;;;26.50;1.00;;;;;;5012750;28;20631;-88
2022/06/02 07:18:10;;;;;;;7.10;3.97;;;25.70;1.00;;;;;;5013007;28;20202;-88
2022/06/02 07:20:47;;;;;;;7.07;6.47;;;26.20;1.00;;;;;;5012628;28;20222;-88
2022/06/02 07:23:21;;;;;;;7.13;6.40;;;26.90;1.00;;;;;;5012561;28;20198;-88
2022/06/02 07:26:04;;;;;;;14.45;8.88;;;26.40;1.00;;;;;;5012891;28;20197;-88
2022/06/02 07:28:47;;;;;;;85.18;42.05;;;25.60;1.00;;;;;;5012537;28;20281;-88
2022/06/02 07:31:28;;;;;;;78.93;37.20;;;25.50;1.00;;;;;;5000726;28;20190;-88
2022/06/02 07:34:10;;;;;;;37.88;18.60;;;25.90;1.00;;;;;;5012866;28;20194;-89
2022/06/02 07:36:58;;;;;;;39.80;19.73;;;25.90;1.00;;;;;;5012786;28;20525;-88
2022/06/02 07:39:59;;;;;;;67.57;35.10;;;25.60;1.00;;;;;;5012458;28;20123;-88
2022/06/02 07:42:50;;;;;;;22.10;13.32;;;25.20;1.00;;;;;;5013132;28;20263;-89
2022/06/02 07:45:31;;;;;;;;;;;24.60;1.00;;;;;;5013038;28;20116;-87
2022/06/02 07:48:33;;;;;;;6.05;5.38;;;23.90;1.00;;;;;;5012574;28;20035;-88
2022/06/02 07:51:07;;;;;;;4.35;3.95;;;24.40;1.00;;;;;;5012589;28;20589;-87
2022/06/02 07:53:49;;;;;;;6.53;3.60;;;25.40;1.00;;;;;;5012571;28;20190;-88
2022/06/02 07:56:26;;;;;;;3.55;3.25;;;26.20;1.00;;;;;;5012627;28;20186;-89
2022/06/02 07:59:04;;;;;;;37.03;24.05;;;27.10;1.00;;;;;;5014389;28;20194;-89
2022/06/02 08:02:02;;;;;;;17.90;14.35;;;27.80;1.00;;;;;;5016629;28;20202;-89
2022/06/02 08:04:38;;;;;;;16.23;12.40;;;28.00;1.00;;;;;;5016178;28;20682;-88
2022/06/02 08:07:12;;;;;;;10.18;8.88;;;27.30;1.00;;;;;;5016144;28;20182;-89
2022/06/02 08:10:12;;;;;;;8.60;7.75;;;26.40;1.00;;;;;;5015472;28;20195;-88
2022/06/02 08:12:44;;;;;;;13.23;9.85;;;25.60;1.00;;;;;;5015970;28;20603;-88
2022/06/02 08:15:27;;;;;;;6.30;3.80;;;24.80;1.00;;;;;;5016178;28;20169;-88
2022/06/02 08:17:58;;;;;;;4.28;3.00;;;25.20;1.00;;;;;;5015840;28;20248;-88
2022/06/02 08:20:40;;;;;;;;;;;26.00;1.00;;;;;;5016408;28;20052;-88
2022/06/02 08:23:16;;;;;;;4.95;4.55;;;26.90;1.00;;;;;;5015878;28;20297;-89
2022/06/02 08:25:57;;;;;;;7.38;2.85;;;27.80;1.00;;;;;;5015785;28;20262;-88
2022/06/02 08:28:46;;;;;;;4.07;3.70;;;28.50;1.00;;;;;;5015702;28;20277;-88
2022/06/02 08:31:34;;;;;;;6.05;5.25;;;28.70;1.00;;;;;;5015483;28;20202;-88
2022/06/02 08:34:11;;;;;;;5.93;5.00;;;28.50;1.00;;;;;;5015347;28;20174;-89
2022/06/02 08:36:48;;;;;;;7.05;4.70;;;27.60;1.00;;;;;;5015689;28;20202;-89
2022/06/02 08:39:45;;;;;;;5.60;3.58;;;27.30;1.00;;;;;;5015596;28;20649;-89
2022/06/02 08:42:38;;;;;;;5.97;4.45;;;28.00;1.00;;;;;;5015482;28;20187;-87
2022/06/02 08:45:27;;;;;;;3.10;2.45;;;28.70;1.00;;;;;;5015087;28;20198;-89
2022/06/02 08:48:24;;;;;;;3.13;2.50;;;29.20;1.00;;;;;;5015177;28;20248;-88
2022/06/02 08:51:14;;;;;;;3.15;2.60;;;29.50;1.00;;;;;;5014969;28;20194;-89
2022/06/02 08:54:20;;;;;;;4.43;3.50;;;29.30;1.00;;;;;;5015029;28;20248;-89
2022/06/02 08:57:11;;;;;;;;;;;28.70;1.00;;;;;;5015493;28;20057;-87
2022/06/02 09:00:18;;;;;;;3.83;2.58;;;27.70;1.00;;;;;;5015136;28;20264;-88
2022/06/02 09:03:33;;;;;;;3.17;2.33;;;27.70;1.00;;;;;;5006767;28;20198;-89
2022/06/02 09:06:43;;;;;;;2.15;2.00;;;28.20;1.00;;;;;;5006001;28;20206;-89
2022/06/02 09:09:32;;;;;;;3.30;2.30;;;28.50;1.00;;;;;;5003579;28;20617;-89
2022/06/02 09:12:34;;;;;;;3.50;2.20;;;28.40;1.00;;;;;;5014710;28;20249;-89
2022/06/02 09:15:34;;;;;;;2.22;1.98;;;27.80;1.00;;;;;;5001091;28;20237;-88
2022/06/02 09:18:16;;;;;;;2.47;2.28;;;27.80;1.00;;;;;;5015085;28;20269;-88
2022/06/02 09:20:50;;;;;;;3.78;2.78;;;28.20;1.00;;;;;;5014710;28;20647;-91
2022/06/02 09:23:44;;;;;;;5.00;3.55;;;27.90;1.00;;;;;;5014439;28;20495;-89
2022/06/02 09:26:23;;;;;;;5.45;4.05;;;27.90;1.00;;;;;;5014334;28;20218;-89
2022/06/02 09:29:08;;;;;;;32.83;17.00;;;28.00;1.00;;;;;;5014174;28;20687;-88
2022/06/02 09:31:57;;;;;;;33.72;17.58;;;27.60;1.00;;;;;;5014435;28;20690;-88
2022/06/02 09:34:32;;;;;;;;;;;26.80;1.00;;;;;;5000203;28;20052;-88
2022/06/02 09:37:09;;;;;;;;;;;26.10;1.00;;;;;;5014834;28;20255;-89
2022/06/02 09:39:45;;;;;;;;;;;25.40;1.00;;;;;;5002069;28;19952;-88
2022/06/02 09:42:23;;;;;;;;;;;24.50;1.00;;;;;;5014771;28;19972;-88
2022/06/02 09:44:54;;;;;;;;;;;23.60;1.00;;;;;;5014753;28;19925;-87
2022/06/02 09:47:56;;;;;;;42.10;19.08;;;23.00;1.00;;;;;;5014224;28;20184;-87
2022/06/02 09:50:53;;;;;;;20.75;9.68;;;22.80;1.00;;;;;;5013989;28;20610;-87
2022/06/02 09:53:54;;;;;;;6.75;5.43;;;23.10;1.00;;;;;;5014035;28;20329;-86
2022/06/02 09:56:46;;;;;;;6.13;4.85;;;23.50;1.00;;;;;;5013478;28;20194;-88
2022/06/02 09:59:25;;;;;;;14.57;10.80;;;23.80;1.00;;;;;;5014619;28;20244;-88
2022/06/02 10:02:06;;;;;;;4.57;3.45;;;23.90;1.00;;;;;;5013836;28;20191;-88
2022/06/02 10:04:56;;;;;;;14.63;9.05;;;23.90;1.00;;;;;;5013679;28;20199;-87
2022/06/02 10:07:39;;;;;;;16.05;9.40;;;23.80;1.00;;;;;;5001799;28;20249;-88
2022/06/02 10:10:40;;;;;;;8.82;6.25;;;23.90;1.00;;;;;;5013572;28;20693;-90
2022/06/02 10:13:34;;;;;;;9.05;5.57;;;24.20;1.00;;;;;;5013575;28;20655;-88
2022/06/02 10:16:25;;;;;;;5.78;4.78;;;24.40;1.00;;;;;;5008603;28;20249;-87
2022/06/02 10:19:31;;;;;;;5.72;4.82;;;24.30;1.00;;;;;;5012889;28;20247;-88
2022/06/02 10:22:09;;;;;;;4.25;3.30;;;24.40;1.00;;;;;;5011654;28;20198;-88
2022/06/02 10:25:01;;;;;;;3.58;3.00;;;24.20;1.00;;;;;;5013507;28;20273;-89
2022/06/02 10:28:05;;;;;;;5.18;4.20;;;24.10;1.00;;;;;;5013123;28;20256;-89
2022/06/02 10:31:10;;;;;;;6.75;4.57;;;23.90;1.00;;;;;;5012799;28;20249;-88
2022/06/02 10:34:08;;;;;;;11.43;4.43;;;23.90;1.00;;;;;;5013524;28;20253;-88
2022/06/02 10:37:02;;;;;;;5.00;4.50;;;23.60;1.00;;;;;;4992061;28;20619;-88
2022/06/02 10:39:54;;;;;;;6.18;4.25;;;23.10;1.00;;;;;;5013220;28;20217;-88
2022/06/02 10:42:50;;;;;;;7.55;4.78;;;23.10;1.00;;;;;;5012865;28;20194;-91
2022/06/02 10:45:39;;;;;;;8.48;3.92;;;23.30;1.00;;;;;;5012974;28;20261;-87
2022/06/02 10:48:44;;;;;;;5.00;3.88;;;23.50;1.00;;;;;;5013550;28;20186;-88
2022/06/02 10:51:36;;;;;;;7.20;4.30;;;23.80;1.00;;;;;;5012602;28;20730;-89
2022/06/02 10:54:23;;;;;;;12.52;4.45;;;23.70;1.00;;;;;;5013075;28;20225;-88
2022/06/02 10:57:25;;;;;;;4.18;3.60;;;23.60;1.00;;;;;;5002041;28;20206;-88
2022/06/02 11:00:11;;;;;;;4.07;3.67;;;23.30;1.00;;;;;;5012721;28;20194;-88
2022/06/02 11:03:34;;;;;;;4.28;3.50;;;22.90;1.00;;;;;;5012905;28;20195;-88
2022/06/02 11:06:42;;;;;;;4.63;3.75;;;22.50;1.00;;;;;;5003304;28;20198;-88
2022/06/02 11:09:45;;;;;;;5.25;3.20;;;22.30;1.00;;;;;;5001077;28;20272;-87
2022/06/02 11:13:08;;;;;;;3.60;3.03;;;22.60;1.00;;;;;;4997482;28;20198;-88
2022/06/02 11:16:25;;;;;;;3.25;2.95;;;23.10;1.00;;;;;;5012766;28;20194;-89
2022/06/02 11:19:31;;;;;;;2.50;2.30;;;23.30;1.00;;;;;;5009828;28;20207;-88
2022/06/02 11:22:26;;;;;;;2.60;1.90;;;23.20;1.00;;;;;;5012270;28;20225;-89
2022/06/02 11:25:16;;;;;;;2.45;1.60;;;23.30;1.00;;;;;;5012693;28;20186;-88
2022/06/02 11:28:15;;;;;;;3.38;1.85;;;23.40;1.00;;;;;;4999584;28;20572;-88
2022/06/02 11:31:13;;;;;;;4.07;2.10;;;23.30;1.00;;;;;;5011900;28;20305;-88
2022/06/02 11:34:31;;;;;;;3.28;1.85;;;23.20;1.00;;;;;;5014082;28;20282;-88
2022/06/02 11:37:46;;;;;;;3.65;1.48;;;23.20;1.00;;;;;;5010155;28;20190;-88
2022/06/02 11:40:34;;;;;;;3.05;1.60;;;23.10;1.00;;;;;;5008969;28;20194;-88
2022/06/02 11:43:16;;;;;;;2.90;1.60;;;23.00;1.00;;;;;;5003830;28;20208;-89
2022/06/02 11:46:16;;;;;;;31.00;5.50;;;23.00;1.00;;;;;;5015917;28;20226;-88
2022/06/02 11:49:19;;;;;;;6.35;2.00;;;23.10;1.00;;;;;;5016109;28;20190;-88
2022/06/02 11:52:21;;;;;;;2.42;1.40;;;23.00;1.00;;;;;;4996661;28;20288;-89
2022/06/02 11:55:12;;;;;;;2.83;1.80;;;23.00;1.00;;;;;;5002644;28;20189;-88
2022/06/02 11:58:04;;;;;;;1.70;1.50;;;23.10;1.00;;;;;;5016387;28;20191;-89
2022/06/02 12:00:58;;;;;;;2.10;1.77;;;22.90;1.00;;;;;;5016125;28;20202;-87
2022/06/02 12:04:02;;;;;;;1.88;1.70;;;22.60;1.00;;;;;;5016024;28;20218;-89
2022/06/02 12:07:05;;;;;;;5.03;2.22;;;22.60;1.00;;;;;;5016041;28;20205;-88
2022/06/02 12:09:52;;;;;;;2.53;2.30;;;22.60;1.00;;;;;;5015077;28;20206;-90
2022/06/02 12:12:33;;;;;;;2.63;2.22;;;22.40;1.00;;;;;;5016049;28;20280;-89
2022/06/02 12:15:27;;;;;;;3.88;1.98;;;21.90;1.00;;;;;;5015916;28;20190;-88
2022/06/02 12:18:19;;;;;;;1.80;1.70;;;21.50;1.00;;;;;;5015828;28;20186;-88
2022/06/02 12:21:09;;;;;;;4.10;1.83;;;21.40;1.00;;;;;;5015801;28;20289;-87
2022/06/02 12:23:55;;;;;;;6.93;5.18;;;21.30;1.00;;;;;;5015724;28;20195;-89
2022/06/02 12:26:33;;;;;;;12.73;10.43;;;21.00;1.00;;;;;;5015486;28;20622;-87
2022/06/02 12:29:16;;;;;;;7.07;2.42;;;20.80;1.00;;;;;;5014796;28;20277;-85
2022/06/02 12:32:03;;;;;;;7.68;2.95;;;20.50;1.00;;;;;;5015958;28;20190;-84
2022/06/02 12:35:01;;;;;;;2.83;2.22;;;20.40;1.00;;;;;;5013291;28;20277;-86
2022/06/02 12:37:49;;;;;;;2.95;2.10;;;20.90;1.00;;;;;;5015294;28;20273;-85
2022/06/02 12:40:33;;;;;;;1.80;1.70;;;21.30;1.00;;;;;;5003036;28;20230;-87
2022/06/02 12:43:33;;;;;;;2.70;2.00;;;21.50;1.00;;;;;;5015211;28;20225;-87
2022/06/02 12:46:14;;;;;;;2.35;2.03;;;21.60;1.00;;;;;;5008756;28;20222;-86
2022/06/02 12:49:18;;;;;;;2.78;1.90;;;21.80;1.00;;;;;;5015208;28;20233;-85
2022/06/02 12:52:16;;;;;;;3.58;1.83;;;21.70;1.00;;;;;;5004931;28;20269;-85
2022/06/02 12:55:24;;;;;;;2.17;1.55;;;21.60;1.00;;;;;;5015356;28;20273;-85
2022/06/02 12:58:18;;;;;;;1.88;1.30;;;21.70;1.00;;;;;;5015010;28;20273;-85
2022/06/02 13:01:09;;;;;;;4.45;1.48;;;21.70;1.00;;;;;;5015168;28;20273;-88
2022/06/02 13:04:08;;;;;;;1.65;1.30;;;21.90;1.00;;;;;;5014936;28;20270;-85
2022/06/02 13:07:15;;;;;;;2.83;1.60;;;22.20;1.00;;;;;;5014568;28;20621;-87
2022/06/02 13:10:12;;;;;;;2.65;1.60;;;22.20;1.00;;;;;;5014874;28;20242;-88
2022/06/02 13:13:21;;;;;;;2.08;1.65;;;22.00;1.00;;;;;;4994569;28;20265;-88
2022/06/02 13:16:19;;;;;;;1.63;1.45;;;21.90;1.00;;;;;;5001753;28;20194;-88
2022/06/02 13:19:16;;;;;;;2.10;1.42;;;21.70;1.00;;;;;;5013338;28;20201;-85
2022/06/02 13:22:31;;;;;;;3.08;1.83;;;21.60;1.00;;;;;;5014884;28;20236;-86
2022/06/02 13:25:31;;;;;;;6.68;1.80;;;21.60;1.00;;;;;;5003237;28;20206;-87
2022/06/02 13:28:22;;;;;;;6.20;2.03;;;21.70;1.00;;;;;;4995672;28;20198;-89
2022/06/02 13:31:14;;;;;;;2.20;1.40;;;21.60;1.00;;;;;;5014260;28;20218;-85
2022/06/02 13:34:16;;;;;;;1.77;1.30;;;21.70;1.00;;;;;;5014366;28;20199;-85
2022/06/02 13:37:01;;;;;;;1.20;1.10;;;21.70;1.00;;;;;;5014134;28;20214;-86
2022/06/02 13:39:44;;;;;;;3.80;1.23;;;21.80;1.00;;;;;;5002556;28;20237;-85
2022/06/02 13:42:53;;;;;;;2.08;1.20;;;21.80;1.00;;;;;;5014094;28;20618;-85
2022/06/02 13:46:05;;;;;;;3.85;1.33;;;21.70;1.00;;;;;;5004669;28;20221;-87
2022/06/02 13:49:12;;;;;;;3.95;1.35;;;21.30;1.00;;;;;;5013909;28;20282;-85
2022/06/02 13:52:18;;;;;;;4.22;1.50;;;20.80;1.00;;;;;;5014030;28;20192;-84
2022/06/02 13:58:24;;;;;;;11.02;1.95;;;20.30;1.00;;;;;;5013334;28;20198;-84
2022/06/02 14:01:16;;;;;;;2.25;1.65;;;20.20;1.00;;;;;;5008878;28;20202;-85
2022/06/02 14:04:01;;;;;;;6.18;1.63;;;20.30;1.00;;;;;;5013491;28;20273;-84
2022/06/02 14:06:34;;;;;;;2.35;1.30;;;20.60;1.00;;;;;;5013630;28;20194;-87
2022/06/02 14:09:37;;;;;;;1.42;1.20;;;20.90;1.00;;;;;;5013417;28;20727;-84
2022/06/02 14:12:29;;;;;;;2.20;1.30;;;21.20;1.00;;;;;;5013125;28;20213;-84
2022/06/02 14:15:16;;;;;;;1.35;1.25;;;21.40;1.00;;;;;;5013679;28;20221;-84
2022/06/02 14:18:00;;;;;;;2.90;2.00;;;21.40;1.00;;;;;;5013215;28;20609;-87
2022/06/02 14:20:37;;;;;;;4.35;2.70;;;21.40;1.00;;;;;;5013448;28;20221;-88
2022/06/02 14:23:19;;;;;;;1.17;1.08;;;21.40;1.00;;;;;;5013504;28;20217;-84
2022/06/02 14:25:57;;;;;;;2.90;1.15;;;21.30;1.00;;;;;;5012527;28;20214;-84
2022/06/02 14:28:39;;;;;;;2.10;1.10;;;21.30;1.00;;;;;;5012996;28;20197;-87
2022/06/02 14:31:12;;;;;;;1.20;1.10;;;21.30;1.00;;;;;;5013288;28;20632;-87
2022/06/02 14:33:45;;;;;;;1.38;1.05;;;21.30;1.00;;;;;;5013301;28;20277;-84
2022/06/02 14:36:25;;;;;;;1.65;1.20;;;21.20;1.00;;;;;;5013384;28;20190;-87
2022/06/02 14:39:03;;;;;;;3.17;1.20;;;21.20;1.00;;;;;;5013275;28;20277;-84